sensor_id;sensor_type;location;lat;lon;timestamp;pressure;altitude;pressure_sealevel;temperature;humidity
60433;BME280;46286;48.098;11.590;2022-09-11T00:00:42;95596.28;;;12.14;100.00
60433;BME280;46286;48.098;11.590;2022-09-11T00:03:24;95603.66;;;12.12;100.00
60433;BME280;46286;48.098;11.590;2022-09-11T00:05:52;95592.09;;;12.08;100.00
60433;BME280;46286;48.098;11.590;2022-09-11T00:08:19;95593.66;;;12.09;100.00
60433;BME280;46286;48.098;11.590;2022-09-11T00:10:47;95592.56;;;12.15;100.00
60433;BME280;46286;48.098;11.590;2022-09-11T00:13:21;95586.25;;;12.11;100.00
60433;BME280;46286;48.098;11.590;2022-09-11T00:15:51;95584.69;;;12.10;100.00
60433;BME280;46286;48.098;11.590;2022-09-11T00:18:19;95580.19;;;12.10;100.00
60433;BME280;46286;48.098;11.590;2022-09-11T00:20:51;95584.69;;;12.10;100.00
60433;BME280;46286;48.098;11.590;2022-09-11T00:23:18;95580.19;;;12.10;100.00
60433;BME280;46286;48.098;11.590;2022-09-11T00:25:45;95583.59;;;12.16;100.00
60433;BME280;46286;48.098;11.590;2022-09-11T00:28:29;95577.84;;;12.09;100.00
60433;BME280;46286;48.098;11.590;2022-09-11T00:31:03;95582.06;;;12.10;100.00
60433;BME280;46286;48.098;11.590;2022-09-11T00:33:29;95578.88;;;12.13;100.00
60433;BME280;46286;48.098;11.590;2022-09-11T00:36:05;95577.84;;;12.09;100.00
60433;BME280;46286;48.098;11.590;2022-09-11T00:38:34;95573.13;;;12.06;100.00
60433;BME280;46286;48.098;11.590;2022-09-11T00:41:02;95562.31;;;12.02;100.00
60433;BME280;46286;48.098;11.590;2022-09-11T00:43:29;95574.16;;;12.10;100.00
60433;BME280;46286;48.098;11.590;2022-09-11T00:46:00;95584.44;;;12.06;100.00
60433;BME280;46286;48.098;11.590;2022-09-11T00:48:30;95572.09;;;12.02;100.00
60433;BME280;46286;48.098;11.590;2022-09-11T00:51:00;95570.50;;;12.01;100.00
60433;BME280;46286;48.098;11.590;2022-09-11T00:53:29;95578.94;;;12.03;100.00
60433;BME280;46286;48.098;11.590;2022-09-11T00:56:00;95575.78;;;12.01;100.00
60433;BME280;46286;48.098;11.590;2022-09-11T00:58:30;95575.22;;;12.04;100.00
60433;BME280;46286;48.098;11.590;2022-09-11T01:00:57;95585.00;;;12.03;100.00
60433;BME280;46286;48.098;11.590;2022-09-11T01:03:24;95581.06;;;12.01;100.00
60433;BME280;46286;48.098;11.590;2022-09-11T01:05:50;95587.91;;;12.02;100.00
60433;BME280;46286;48.098;11.590;2022-09-11T01:08:17;95586.59;;;12.04;100.00
60433;BME280;46286;48.098;11.590;2022-09-11T01:16:27;95578.41;;;12.06;100.00
60433;BME280;46286;48.098;11.590;2022-09-11T01:25:12;95572.13;;;11.96;100.00
60433;BME280;46286;48.098;11.590;2022-09-11T01:28:06;95576.81;;;12.05;100.00
60433;BME280;46286;48.098;11.590;2022-09-11T01:30:40;95575.75;;;12.06;100.00
60433;BME280;46286;48.098;11.590;2022-09-11T01:33:23;95567.84;;;12.06;100.00
60433;BME280;46286;48.098;11.590;2022-09-11T01:38:44;95570.00;;;11.99;100.00
60433;BME280;46286;48.098;11.590;2022-09-11T01:41:27;95567.38;;;11.99;100.00
60433;BME280;46286;48.098;11.590;2022-09-11T01:46:29;95567.38;;;11.99;100.00
60433;BME280;46286;48.098;11.590;2022-09-11T01:49:35;95570.50;;;12.01;100.00
60433;BME280;46286;48.098;11.590;2022-09-11T01:52:07;95572.13;;;11.96;100.00
60433;BME280;46286;48.098;11.590;2022-09-11T01:54:38;95572.09;;;12.02;100.00
60433;BME280;46286;48.098;11.590;2022-09-11T01:57:11;95572.09;;;12.02;100.00
60433;BME280;46286;48.098;11.590;2022-09-11T01:59:43;95571.53;;;12.05;100.00
60433;BME280;46286;48.098;11.590;2022-09-11T02:02:11;95572.09;;;12.02;100.00
60433;BME280;46286;48.098;11.590;2022-09-11T02:04:42;95563.13;;;12.03;100.00
60433;BME280;46286;48.098;11.590;2022-09-11T02:07:14;95569.44;;;12.07;100.00
60433;BME280;46286;48.098;11.590;2022-09-11T02:09:50;95565.25;;;12.01;100.00
60433;BME280;46286;48.098;11.590;2022-09-11T02:12:19;95560.22;;;12.04;100.00
60433;BME280;46286;48.098;11.590;2022-09-11T02:14:49;95575.47;;;12.07;100.00
60433;BME280;46286;48.098;11.590;2022-09-11T02:20:03;95571.50;;;12.10;100.00
60433;BME280;46286;48.098;11.590;2022-09-11T02:22:29;95572.00;;;12.12;100.00
60433;BME280;46286;48.098;11.590;2022-09-11T02:24:55;95560.16;;;12.09;100.00
60433;BME280;46286;48.098;11.590;2022-09-11T02:27:25;95561.44;;;12.12;100.00
60433;BME280;46286;48.098;11.590;2022-09-11T02:29:53;95556.72;;;12.09;100.00
60433;BME280;46286;48.098;11.590;2022-09-11T02:32:20;95557.19;;;12.16;100.00
60433;BME280;46286;48.098;11.590;2022-09-11T02:34:47;95558.78;;;12.17;100.00
60433;BME280;46286;48.098;11.590;2022-09-11T02:37:17;95558.78;;;12.17;100.00
60433;BME280;46286;48.098;11.590;2022-09-11T02:39:58;95556.44;;;12.16;100.00
60433;BME280;46286;48.098;11.590;2022-09-11T02:45:33;95556.72;;;12.09;100.00
60433;BME280;46286;48.098;11.590;2022-09-11T02:54:29;95558.31;;;12.10;100.00
60433;BME280;46286;48.098;11.590;2022-09-11T02:59:35;95558.88;;;12.07;100.00
60433;BME280;46286;48.098;11.590;2022-09-11T03:02:03;95562.56;;;12.06;100.00
60433;BME280;46286;48.098;11.590;2022-09-11T03:04:33;95563.91;;;12.03;100.00
60433;BME280;46286;48.098;11.590;2022-09-11T03:07:00;95552.09;;;11.95;100.00
60433;BME280;46286;48.098;11.590;2022-09-11T03:09:26;95554.47;;;11.97;100.00
60433;BME280;46286;48.098;11.590;2022-09-11T03:11:52;95555.25;;;11.98;100.00
60433;BME280;46286;48.098;11.590;2022-09-11T03:14:18;95545.25;;;11.94;100.00
60433;BME280;46286;48.098;11.590;2022-09-11T03:16:43;95552.88;;;11.96;100.00
60433;BME280;46286;48.098;11.590;2022-09-11T03:19:09;95547.06;;;11.99;100.00
60433;BME280;46286;48.098;11.590;2022-09-11T03:21:35;95552.38;;;11.94;100.00
60433;BME280;46286;48.098;11.590;2022-09-11T03:24:01;95553.41;;;11.93;100.00
60433;BME280;46286;48.098;11.590;2022-09-11T03:26:28;95555.03;;;11.94;100.00
60433;BME280;46286;48.098;11.590;2022-09-11T03:28:53;95544.19;;;11.90;100.00
60433;BME280;46286;48.098;11.590;2022-09-11T03:31:19;95552.63;;;11.92;100.00
60433;BME280;46286;48.098;11.590;2022-09-11T03:33:45;95554.75;;;11.90;100.00
60433;BME280;46286;48.098;11.590;2022-09-11T03:36:10;95545.25;;;11.94;100.00
60433;BME280;46286;48.098;11.590;2022-09-11T03:38:36;95551.06;;;11.91;100.00
60433;BME280;46286;48.098;11.590;2022-09-11T03:41:02;95544.25;;;11.85;100.00
60433;BME280;46286;48.098;11.590;2022-09-11T03:43:28;95542.09;;;11.92;100.00
60433;BME280;46286;48.098;11.590;2022-09-11T03:45:54;95548.38;;;11.96;100.00
60433;BME280;46286;48.098;11.590;2022-09-11T03:48:19;95544.13;;;12.01;100.00
60433;BME280;46286;48.098;11.590;2022-09-11T03:50:45;95546.28;;;11.99;100.00
60433;BME280;46286;48.098;11.590;2022-09-11T03:53:12;95547.34;;;11.98;100.00
60433;BME280;46286;48.098;11.590;2022-09-11T03:55:38;95545.75;;;11.96;100.00
60433;BME280;46286;48.098;11.590;2022-09-11T03:58:04;95536.81;;;11.92;100.00
60433;BME280;46286;48.098;11.590;2022-09-11T04:00:31;95531.53;;;11.92;100.00
60433;BME280;46286;48.098;11.590;2022-09-11T04:02:58;95542.09;;;11.92;100.00
60433;BME280;46286;48.098;11.590;2022-09-11T04:05:24;95533.16;;;11.88;100.00
60433;BME280;46286;48.098;11.590;2022-09-11T04:07:51;95541.56;;;11.95;100.00
60433;BME280;46286;48.098;11.590;2022-09-11T04:10:18;95542.09;;;11.92;100.00
60433;BME280;46286;48.098;11.590;2022-09-11T04:12:45;95544.75;;;11.87;100.00
60433;BME280;46286;48.098;11.590;2022-09-11T04:15:10;95536.88;;;11.82;100.00
60433;BME280;46286;48.098;11.590;2022-09-11T04:17:36;95538.94;;;11.90;100.00
60433;BME280;46286;48.098;11.590;2022-09-11T04:20:03;95542.09;;;11.92;100.00
60433;BME280;46286;48.098;11.590;2022-09-11T04:22:29;95537.34;;;11.89;100.00
60433;BME280;46286;48.098;11.590;2022-09-11T04:24:54;95528.94;;;11.87;100.00
60433;BME280;46286;48.098;11.590;2022-09-11T04:27:20;95532.81;;;12.00;100.00
60433;BME280;46286;48.098;11.590;2022-09-11T04:29:47;95534.72;;;11.94;100.00
60433;BME280;46286;48.098;11.590;2022-09-11T04:32:13;95534.72;;;11.94;100.00
60433;BME280;46286;48.098;11.590;2022-09-11T04:34:39;95528.09;;;11.97;100.00
60433;BME280;46286;48.098;11.590;2022-09-11T04:37:04;95532.06;;;11.94;100.00
60433;BME280;46286;48.098;11.590;2022-09-11T04:39:30;95535.47;;;11.95;100.00
60433;BME280;46286;48.098;11.590;2022-09-11T04:41:56;95533.94;;;11.94;100.00
60433;BME280;46286;48.098;11.590;2022-09-11T04:44:22;95538.09;;;12.00;100.00
60433;BME280;46286;48.098;11.590;2022-09-11T04:46:51;95531.00;;;11.95;100.00
60433;BME280;46286;48.098;11.590;2022-09-11T04:49:16;95546.31;;;11.93;100.00
60433;BME280;46286;48.098;11.590;2022-09-11T04:51:42;95544.69;;;11.98;100.00
60433;BME280;46286;48.098;11.590;2022-09-11T04:54:12;95541.56;;;11.90;100.00
60433;BME280;46286;48.098;11.590;2022-09-11T04:56:37;95542.63;;;11.94;100.00
60433;BME280;46286;48.098;11.590;2022-09-11T04:59:10;95548.38;;;11.96;100.00
60433;BME280;46286;48.098;11.590;2022-09-11T05:01:41;95546.84;;;11.95;100.00
60433;BME280;46286;48.098;11.590;2022-09-11T05:04:17;95550.75;;;11.98;100.00
60433;BME280;46286;48.098;11.590;2022-09-11T05:06:43;95562.09;;;11.99;100.00
60433;BME280;46286;48.098;11.590;2022-09-11T05:09:13;95557.88;;;11.98;100.00
60433;BME280;46286;48.098;11.590;2022-09-11T05:11:39;95558.94;;;11.96;100.00
60433;BME280;46286;48.098;11.590;2022-09-11T05:14:05;95554.22;;;11.93;100.00
60433;BME280;46286;48.098;11.590;2022-09-11T05:16:31;95547.88;;;11.89;100.00
60433;BME280;46286;48.098;11.590;2022-09-11T05:18:59;95542.63;;;11.89;100.00
60433;BME280;46286;48.098;11.590;2022-09-11T05:21:26;95542.88;;;11.93;100.00
60433;BME280;46286;48.098;11.590;2022-09-11T05:23:54;95554.75;;;11.90;100.00
60433;BME280;46286;48.098;11.590;2022-09-11T05:26:31;95556.31;;;11.91;100.00
60433;BME280;46286;48.098;11.590;2022-09-11T05:29:02;95559.50;;;11.93;100.00
60433;BME280;46286;48.098;11.590;2022-09-11T05:31:29;95558.44;;;11.89;100.00
60433;BME280;46286;48.098;11.590;2022-09-11T05:33:56;95556.31;;;11.91;100.00
60433;BME280;46286;48.098;11.590;2022-09-11T05:36:23;95568.97;;;12.00;100.00
60433;BME280;46286;48.098;11.590;2022-09-11T05:38:48;95554.22;;;11.93;100.00
60433;BME280;46286;48.098;11.590;2022-09-11T05:41:14;95563.13;;;12.03;100.00
60433;BME280;46286;48.098;11.590;2022-09-11T05:43:42;95568.41;;;12.03;100.00
60433;BME280;46286;48.098;11.590;2022-09-11T05:46:10;95568.41;;;12.03;100.00
60433;BME280;46286;48.098;11.590;2022-09-11T05:48:36;95569.34;;;12.17;100.00
60433;BME280;46286;48.098;11.590;2022-09-11T05:51:09;95571.44;;;12.15;100.00
60433;BME280;46286;48.098;11.590;2022-09-11T05:53:35;95575.66;;;12.16;100.00
60433;BME280;46286;48.098;11.590;2022-09-11T05:56:11;95576.13;;;12.23;100.00
60433;BME280;46286;48.098;11.590;2022-09-11T05:58:37;95574.06;;;12.20;100.00
60433;BME280;46286;48.098;11.590;2022-09-11T06:01:11;95580.34;;;12.24;100.00
60433;BME280;46286;48.098;11.590;2022-09-11T06:03:37;95579.78;;;12.27;100.00
60433;BME280;46286;48.098;11.590;2022-09-11T06:06:05;95581.91;;;12.25;100.00
60433;BME280;46286;48.098;11.590;2022-09-11T06:08:31;95581.88;;;12.30;100.00
60433;BME280;46286;48.098;11.590;2022-09-11T06:10:59;95590.34;;;12.27;100.00
60433;BME280;46286;48.098;11.590;2022-09-11T06:13:28;95593.44;;;12.35;100.00
60433;BME280;46286;48.098;11.590;2022-09-11T06:15:55;95597.66;;;12.36;100.00
60433;BME280;46286;48.098;11.590;2022-09-11T06:18:20;95594.41;;;12.44;100.00
60433;BME280;46286;48.098;11.590;2022-09-11T06:21:06;95594.88;;;12.51;100.00
60433;BME280;46286;48.098;11.590;2022-09-11T06:23:37;95605.38;;;12.56;100.00
60433;BME280;46286;48.098;11.590;2022-09-11T06:26:07;95603.19;;;12.63;100.00
60433;BME280;46286;48.098;11.590;2022-09-11T06:28:34;95593.75;;;12.57;100.00
60433;BME280;46286;48.098;11.590;2022-09-11T06:31:01;95598.94;;;12.68;100.00
60433;BME280;46286;48.098;11.590;2022-09-11T06:33:35;95611.63;;;12.65;100.00
60433;BME280;46286;48.098;11.590;2022-09-11T06:36:03;95604.22;;;12.68;100.00
60433;BME280;46286;48.098;11.590;2022-09-11T06:38:29;95608.38;;;12.74;100.00
60433;BME280;46286;48.098;11.590;2022-09-11T06:41:02;95606.25;;;12.76;100.00
60433;BME280;46286;48.098;11.590;2022-09-11T06:43:28;95609.63;;;12.81;100.00
60433;BME280;46286;48.098;11.590;2022-09-11T06:45:54;95610.63;;;12.86;100.00
60433;BME280;46286;48.098;11.590;2022-09-11T06:48:20;95614.00;;;12.91;100.00
60433;BME280;46286;48.098;11.590;2022-09-11T06:50:46;95617.94;;;12.94;100.00
60433;BME280;46286;48.098;11.590;2022-09-11T06:53:12;95620.81;;;12.97;100.00
60433;BME280;46286;48.098;11.590;2022-09-11T06:55:39;95620.28;;;12.95;100.00
60433;BME280;46286;48.098;11.590;2022-09-11T06:58:05;95612.44;;;12.90;100.00
60433;BME280;46286;48.098;11.590;2022-09-11T07:00:32;95617.59;;;13.00;100.00
60433;BME280;46286;48.098;11.590;2022-09-11T07:02:58;95618.03;;;13.08;100.00
60433;BME280;46286;48.098;11.590;2022-09-11T07:05:24;95622.72;;;13.16;100.00
60433;BME280;46286;48.098;11.590;2022-09-11T07:07:51;95619.06;;;13.12;100.00
60433;BME280;46286;48.098;11.590;2022-09-11T07:10:17;95623.78;;;13.15;100.00
60433;BME280;46286;48.098;11.590;2022-09-11T07:12:42;95622.75;;;13.11;100.00
60433;BME280;46286;48.098;11.590;2022-09-11T07:15:09;95623.66;;;13.25;100.00
60433;BME280;46286;48.098;11.590;2022-09-11T07:17:35;95617.34;;;13.21;100.00
60433;BME280;46286;48.098;11.590;2022-09-11T07:20:04;95622.31;;;13.28;100.00
60433;BME280;46286;48.098;11.590;2022-09-11T07:22:31;95617.78;;;13.28;100.00
60433;BME280;46286;48.098;11.590;2022-09-11T07:24:58;95629.38;;;13.32;100.00
60433;BME280;46286;48.098;11.590;2022-09-11T07:27:24;95631.44;;;13.41;100.00
60433;BME280;46286;48.098;11.590;2022-09-11T07:29:49;95639.28;;;13.46;100.00
60433;BME280;46286;48.098;11.590;2022-09-11T07:32:15;95634.63;;;13.38;100.00
60433;BME280;46286;48.098;11.590;2022-09-11T07:34:40;95642.56;;;13.38;100.00
60433;BME280;46286;48.098;11.590;2022-09-11T07:37:06;95648.16;;;13.31;100.00
60433;BME280;46286;48.098;11.590;2022-09-11T07:39:31;95640.63;;;13.19;100.00
60433;BME280;46286;48.098;11.590;2022-09-11T07:41:57;95642.28;;;13.15;100.00
60433;BME280;46286;48.098;11.590;2022-09-11T07:44:23;95648.16;;;13.31;100.00
60433;BME280;46286;48.098;11.590;2022-09-11T07:46:49;95650.53;;;13.32;100.00
60433;BME280;46286;48.098;11.590;2022-09-11T07:49:15;95655.38;;;13.25;100.00
60433;BME280;46286;48.098;11.590;2022-09-11T07:51:41;95654.78;;;13.28;100.00
60433;BME280;46286;48.098;11.590;2022-09-11T07:54:07;95656.84;;;13.37;100.00
60433;BME280;46286;48.098;11.590;2022-09-11T07:56:34;95665.28;;;13.39;100.00
60433;BME280;46286;48.098;11.590;2022-09-11T07:59:01;95665.38;;;13.52;100.00
60433;BME280;46286;48.098;11.590;2022-09-11T08:01:28;95663.22;;;13.55;100.00
60433;BME280;46286;48.098;11.590;2022-09-11T08:04:00;95668.44;;;13.41;100.00
60433;BME280;46286;48.098;11.590;2022-09-11T08:06:28;95673.16;;;13.44;100.00
60433;BME280;46286;48.098;11.590;2022-09-11T08:08:59;95674.72;;;13.45;100.00
60433;BME280;46286;48.098;11.590;2022-09-11T08:11:27;95668.06;;;13.47;100.00
60433;BME280;46286;48.098;11.590;2022-09-11T08:13:54;95677.72;;;13.57;100.00
60433;BME280;46286;48.098;11.590;2022-09-11T08:16:21;95673.97;;;13.63;100.00
60433;BME280;46286;48.098;11.590;2022-09-11T08:18:47;95680.19;;;13.73;100.00
60433;BME280;46286;48.098;11.590;2022-09-11T08:21:13;95676.91;;;13.81;100.00
60433;BME280;46286;48.098;11.590;2022-09-11T08:23:40;95685.78;;;13.90;100.00
60433;BME280;46286;48.098;11.590;2022-09-11T08:26:08;95685.91;;;13.80;100.00
60433;BME280;46286;48.098;11.590;2022-09-11T08:28:35;95688.94;;;13.92;100.00
60433;BME280;46286;48.098;11.590;2022-09-11T08:31:02;95694.66;;;13.99;100.00
60433;BME280;46286;48.098;11.590;2022-09-11T08:33:29;95695.19;;;13.96;100.00
60433;BME280;46286;48.098;11.590;2022-09-11T08:35:56;95692.91;;;14.09;100.00
60433;BME280;46286;48.098;11.590;2022-09-11T08:38:22;95701.38;;;14.11;100.00
60433;BME280;46286;48.098;11.590;2022-09-11T08:40:48;95707.59;;;14.01;100.00
60433;BME280;46286;48.098;11.590;2022-09-11T08:43:20;95706.22;;;14.03;100.00
60433;BME280;46286;48.098;11.590;2022-09-11T08:45:47;95704.38;;;13.85;100.00
60433;BME280;46286;48.098;11.590;2022-09-11T08:48:13;95709.38;;;14.06;100.00
60433;BME280;46286;48.098;11.590;2022-09-11T08:50:42;95706.09;;;14.14;100.00
60433;BME280;46286;48.098;11.590;2022-09-11T08:53:15;95702.94;;;14.12;100.00
60433;BME280;46286;48.098;11.590;2022-09-11T08:55:50;95717.09;;;14.21;100.00
60433;BME280;46286;48.098;11.590;2022-09-11T09:01:06;95712.00;;;14.25;100.00
60433;BME280;46286;48.098;11.590;2022-09-11T09:03:53;95719.91;;;14.44;100.00
60433;BME280;46286;48.098;11.590;2022-09-11T09:06:41;95708.78;;;14.47;100.00
60433;BME280;46286;48.098;11.590;2022-09-11T09:11:55;95723.28;;;14.49;100.00
60433;BME280;46286;48.098;11.590;2022-09-11T09:14:49;95730.00;;;14.61;100.00
60433;BME280;46286;48.098;11.590;2022-09-11T09:17:27;95723.50;;;14.53;100.00
60433;BME280;46286;48.098;11.590;2022-09-11T09:20:00;95727.63;;;14.59;100.00
60433;BME280;46286;48.098;11.590;2022-09-11T09:22:38;95725.94;;;14.68;100.00
60433;BME280;46286;48.098;11.590;2022-09-11T09:25:11;95728.31;;;14.84;100.00
60433;BME280;46286;48.098;11.590;2022-09-11T09:27:46;95729.81;;;14.90;100.00
60433;BME280;46286;48.098;11.590;2022-09-11T09:30:15;95729.13;;;14.98;100.00
60433;BME280;46286;48.098;11.590;2022-09-11T09:32:58;95726.00;;;14.96;100.00
60433;BME280;46286;48.098;11.590;2022-09-11T09:35:31;95727.69;;;15.06;100.00
60433;BME280;46286;48.098;11.590;2022-09-11T09:38:00;95716.00;;;14.93;100.00
60433;BME280;46286;48.098;11.590;2022-09-11T09:40:26;95721.06;;;14.76;100.00
60433;BME280;46286;48.098;11.590;2022-09-11T09:45:46;95725.78;;;14.79;100.00
60433;BME280;46286;48.098;11.590;2022-09-11T09:48:13;95724.28;;;14.53;100.00
60433;BME280;46286;48.098;11.590;2022-09-11T09:50:40;95733.16;;;14.44;100.00
60433;BME280;46286;48.098;11.590;2022-09-11T09:53:32;95731.94;;;14.55;100.00
60433;BME280;46286;48.098;11.590;2022-09-11T09:55:59;95730.94;;;14.51;100.00
60433;BME280;46286;48.098;11.590;2022-09-11T09:58:30;95726.81;;;14.45;100.00
60433;BME280;46286;48.098;11.590;2022-09-11T10:00:56;95729.66;;;14.29;100.00
60433;BME280;46286;48.098;11.590;2022-09-11T10:03:23;95730.66;;;14.33;100.00
60433;BME280;46286;48.098;11.590;2022-09-11T10:05:51;95731.88;;;14.60;100.00
60433;BME280;46286;48.098;11.590;2022-09-11T10:08:32;95729.50;;;14.78;100.00
60433;BME280;46286;48.098;11.590;2022-09-11T10:11:03;95729.91;;;14.85;100.00
60433;BME280;46286;48.098;11.590;2022-09-11T10:13:32;95734.94;;;15.00;100.00
60433;BME280;46286;48.098;11.590;2022-09-11T10:16:00;95737.88;;;14.99;100.00
60433;BME280;46286;48.098;11.590;2022-09-11T10:26:26;95736.09;;;14.61;100.00
60433;BME280;46286;48.098;11.590;2022-09-11T10:28:55;95740.03;;;14.45;100.00
60433;BME280;46286;48.098;11.590;2022-09-11T10:31:23;95742.19;;;14.24;100.00
60433;BME280;46286;48.098;11.590;2022-09-11T10:33:54;95736.41;;;14.02;100.00
60433;BME280;46286;48.098;11.590;2022-09-11T10:36:23;95743.34;;;13.98;100.00
60433;BME280;46286;48.098;11.590;2022-09-11T10:38:50;95748.53;;;14.03;100.00
60433;BME280;46286;48.098;11.590;2022-09-11T10:44:05;95748.81;;;13.83;100.00
60433;BME280;46286;48.098;11.590;2022-09-11T10:46:39;95751.09;;;13.71;100.00
60433;BME280;46286;48.098;11.590;2022-09-11T10:51:32;95763.34;;;13.85;100.00
60433;BME280;46286;48.098;11.590;2022-09-11T10:59:30;95755.28;;;14.53;100.00
60433;BME280;46286;48.098;11.590;2022-09-11T11:01:59;95758.84;;;15.28;100.00
60433;BME280;46286;48.098;11.590;2022-09-11T11:04:28;95759.63;;;15.42;100.00
60433;BME280;46286;48.098;11.590;2022-09-11T11:07:08;95754.53;;;15.60;100.00
60433;BME280;46286;48.098;11.590;2022-09-11T11:09:52;95755.31;;;16.02;100.00
60433;BME280;46286;48.098;11.590;2022-09-11T11:21:30;95764.94;;;15.42;100.00
60433;BME280;46286;48.098;11.590;2022-09-11T11:37:33;95770.44;;;15.60;100.00
60433;BME280;46286;48.098;11.590;2022-09-11T11:40:13;95774.00;;;15.41;100.00
60433;BME280;46286;48.098;11.590;2022-09-11T11:42:51;95785.00;;;15.49;100.00
60433;BME280;46286;48.098;11.590;2022-09-11T11:45:37;95788.84;;;15.10;100.00
60433;BME280;46286;48.098;11.590;2022-09-11T11:48:34;95791.78;;;14.94;100.00
60433;BME280;46286;48.098;11.590;2022-09-11T11:51:06;95800.13;;;14.68;100.00
60433;BME280;46286;48.098;11.590;2022-09-11T11:53:47;95794.72;;;14.35;100.00
60433;BME280;46286;48.098;11.590;2022-09-11T11:59:40;95798.50;;;14.29;100.00
60433;BME280;46286;48.098;11.590;2022-09-11T12:02:13;95795.66;;;14.45;100.00
60433;BME280;46286;48.098;11.590;2022-09-11T12:04:53;95790.19;;;14.93;100.00
60433;BME280;46286;48.098;11.590;2022-09-11T12:07:24;95785.72;;;15.07;100.00
60433;BME280;46286;48.098;11.590;2022-09-11T12:09:53;95796.63;;;15.20;100.00
60433;BME280;46286;48.098;11.590;2022-09-11T12:12:20;95797.72;;;15.19;100.00
60433;BME280;46286;48.098;11.590;2022-09-11T12:14:55;95801.84;;;15.25;100.00
60433;BME280;46286;48.098;11.590;2022-09-11T12:17:37;95797.31;;;15.12;100.00
60433;BME280;46286;48.098;11.590;2022-09-11T12:22:44;95790.88;;;15.59;100.00
60433;BME280;46286;48.098;11.590;2022-09-11T12:32:49;95794.75;;;16.45;100.00
60433;BME280;46286;48.098;11.590;2022-09-11T12:37:53;95781.56;;;17.31;100.00
60433;BME280;46286;48.098;11.590;2022-09-11T12:40:49;95787.19;;;18.01;100.00
60433;BME280;46286;48.098;11.590;2022-09-11T12:45:51;95788.81;;;17.39;100.00
60433;BME280;46286;48.098;11.590;2022-09-11T12:48:20;95786.09;;;16.99;100.00
60433;BME280;46286;48.098;11.590;2022-09-11T12:50:52;95793.75;;;16.55;100.00
60433;BME280;46286;48.098;11.590;2022-09-11T12:53:28;95795.97;;;16.25;100.00
60433;BME280;46286;48.098;11.590;2022-09-11T12:58:33;95789.13;;;16.10;100.00
60433;BME280;46286;48.098;11.590;2022-09-11T13:01:03;95783.03;;;16.10;100.00
60433;BME280;46286;48.098;11.590;2022-09-11T13:03:31;95774.75;;;16.11;100.00
60433;BME280;46286;48.098;11.590;2022-09-11T13:06:03;95778.41;;;16.16;100.00
60433;BME280;46286;48.098;11.590;2022-09-11T13:08:36;95778.91;;;16.18;100.00
60433;BME280;46286;48.098;11.590;2022-09-11T13:16:55;95767.75;;;16.89;100.00
60433;BME280;46286;48.098;11.590;2022-09-11T13:19:22;95771.88;;;17.04;100.00
60433;BME280;46286;48.098;11.590;2022-09-11T13:21:50;95770.84;;;17.13;100.00
60433;BME280;46286;48.098;11.590;2022-09-11T13:24:22;95769.06;;;17.00;100.00
60433;BME280;46286;48.098;11.590;2022-09-11T13:26:54;95770.75;;;16.96;100.00
60433;BME280;46286;48.098;11.590;2022-09-11T13:29:23;95772.69;;;17.04;100.00
60433;BME280;46286;48.098;11.590;2022-09-11T13:31:51;95778.38;;;17.11;100.00
60433;BME280;46286;48.098;11.590;2022-09-11T13:34:21;95765.34;;;17.01;100.00
60433;BME280;46286;48.098;11.590;2022-09-11T13:36:49;95771.28;;;17.38;100.00
60433;BME280;46286;48.098;11.590;2022-09-11T13:39:16;95762.22;;;17.39;100.00
60433;BME280;46286;48.098;11.590;2022-09-11T13:41:44;95761.88;;;17.32;100.00
60433;BME280;46286;48.098;11.590;2022-09-11T13:44:32;95753.84;;;17.55;100.00
60433;BME280;46286;48.098;11.590;2022-09-11T13:47:04;95762.78;;;18.16;100.00
60433;BME280;46286;48.098;11.590;2022-09-11T13:49:35;95772.03;;;18.89;100.00
60433;BME280;46286;48.098;11.590;2022-09-11T13:52:08;95759.31;;;18.07;100.00
60433;BME280;46286;48.098;11.590;2022-09-11T13:54:38;95752.50;;;17.83;100.00
60433;BME280;46286;48.098;11.590;2022-09-11T13:57:14;95756.28;;;17.42;100.00
60433;BME280;46286;48.098;11.590;2022-09-11T13:59:51;95763.81;;;17.40;100.00
60433;BME280;46286;48.098;11.590;2022-09-11T14:10:30;95770.13;;;16.54;100.00
60433;BME280;46286;48.098;11.590;2022-09-11T14:13:02;95769.91;;;16.64;100.00
60433;BME280;46286;48.098;11.590;2022-09-11T14:15:56;95765.78;;;16.58;100.00
60433;BME280;46286;48.098;11.590;2022-09-11T14:21:35;95766.53;;;16.72;100.00
60433;BME280;46286;48.098;11.590;2022-09-11T14:24:02;95759.63;;;16.71;100.00
60433;BME280;46286;48.098;11.590;2022-09-11T14:31:39;95763.25;;;16.98;100.00
60433;BME280;46286;48.098;11.590;2022-09-11T14:34:12;95763.84;;;17.18;100.00
60433;BME280;46286;48.098;11.590;2022-09-11T14:37:04;95755.66;;;17.05;100.00
60433;BME280;46286;48.098;11.590;2022-09-11T14:39:46;95765.31;;;16.78;100.00
60433;BME280;46286;48.098;11.590;2022-09-11T14:42:16;95767.59;;;16.49;100.00
60433;BME280;46286;48.098;11.590;2022-09-11T14:44:42;95770.94;;;16.40;100.00
60433;BME280;46286;48.098;11.590;2022-09-11T14:47:19;95766.31;;;16.46;100.00
60433;BME280;46286;48.098;11.590;2022-09-11T14:49:45;95772.91;;;16.49;100.00
60433;BME280;46286;48.098;11.590;2022-09-11T14:52:14;95770.53;;;16.47;100.00
60433;BME280;46286;48.098;11.590;2022-09-11T14:54:40;95756.59;;;16.41;100.00
60433;BME280;46286;48.098;11.590;2022-09-11T14:57:17;95770.13;;;16.54;100.00
60433;BME280;46286;48.098;11.590;2022-09-11T14:59:42;95768.31;;;16.63;100.00